Time;durP1;ratioP1;P1;durP2;ratioP2;P2;SDS_P1;SDS_P2;PMS_P1;PMS_P2;Temp;Humidity;BMP_temperature;BMP_pressure;BME280_temperature;BME280_humidity;BME280_pressure;Samples;Min_cycle;Max_cycle;Signal;HPM_P1;HPM_P2
2021/03/14 00:00:13;;;;;;;23.30;13.98;;;5.70;55.30;;;;;;5112549;28;20396;-71
2021/03/14 00:02:39;;;;;;;21.40;13.57;;;5.70;55.20;;;;;;5096943;28;20046;-71
2021/03/14 00:05:05;;;;;;;20.77;13.23;;;5.80;55.30;;;;;;5097892;28;20143;-71
2021/03/14 00:07:31;;;;;;;21.40;13.43;;;5.70;55.20;;;;;;5116343;28;20032;-71
2021/03/14 00:09:57;;;;;;;23.35;14.48;;;5.70;55.30;;;;;;5116313;28;20043;-71
2021/03/14 00:12:23;;;;;;;21.55;13.52;;;5.80;55.30;;;;;;5116246;28;20446;-71
2021/03/14 00:14:49;;;;;;;21.55;12.90;;;5.70;55.20;;;;;;5115965;28;20485;-71
2021/03/14 00:17:15;;;;;;;22.58;14.57;;;5.70;55.20;;;;;;5115844;28;20138;-71
2021/03/14 00:19:41;;;;;;;23.83;14.57;;;5.70;55.20;;;;;;5097831;28;20046;-72
2021/03/14 00:22:07;;;;;;;24.10;14.00;;;5.70;55.30;;;;;;5115990;28;20070;-73
2021/03/14 00:24:32;;;;;;;24.90;14.05;;;5.70;55.30;;;;;;5116051;28;20381;-73
2021/03/14 00:26:58;;;;;;;23.75;14.20;;;5.70;55.20;;;;;;5116362;28;20516;-71
2021/03/14 00:29:24;;;;;;;22.88;14.00;;;5.70;55.20;;;;;;5097843;28;20039;-71
2021/03/14 00:31:50;;;;;;;23.77;13.55;;;5.70;55.30;;;;;;5115799;28;20036;-72
2021/03/14 00:34:16;;;;;;;22.42;14.20;;;5.70;55.30;;;;;;5115625;28;20043;-71
2021/03/14 00:36:42;;;;;;;21.75;14.07;;;5.70;55.20;;;;;;5115719;28;20465;-72
2021/03/14 00:39:08;;;;;;;20.73;13.20;;;5.80;55.30;;;;;;5115802;28;20452;-72
2021/03/14 00:41:34;;;;;;;22.67;14.43;;;5.70;55.30;;;;;;5115623;28;20118;-72
2021/03/14 00:43:59;;;;;;;24.90;14.20;;;5.70;55.30;;;;;;5115560;28;20046;-71
2021/03/14 00:46:30;;;;;;;22.98;13.75;;;5.70;55.30;;;;;;5103933;28;20039;-72
2021/03/14 00:48:56;;;;;;;20.38;13.00;;;5.70;55.30;;;;;;5093236;28;20036;-73
2021/03/14 00:51:23;;;;;;;19.33;12.88;;;5.70;55.40;;;;;;5115430;28;20081;-73
2021/03/14 00:53:51;;;;;;;22.20;14.07;;;5.70;55.30;;;;;;5097373;28;20388;-72
2021/03/14 00:56:23;;;;;;;19.45;12.55;;;5.70;55.40;;;;;;5097311;28;20043;-71
2021/03/14 00:58:49;;;;;;;19.80;12.48;;;5.70;55.40;;;;;;5115041;28;20059;-70
2021/03/14 01:01:16;;;;;;;22.05;12.80;;;5.70;55.40;;;;;;5096808;28;20039;-71
2021/03/14 01:03:44;;;;;;;21.95;12.98;;;5.70;55.50;;;;;;5097108;28;20063;-72
2021/03/14 01:06:10;;;;;;;18.75;13.07;;;5.70;55.40;;;;;;5097011;28;20066;-72
2021/03/14 01:08:37;;;;;;;21.58;12.65;;;5.70;55.40;;;;;;5115142;28;20043;-72
2021/03/14 01:11:03;;;;;;;19.75;12.75;;;5.70;55.50;;;;;;5096818;28;20028;-72
2021/03/14 01:13:59;;;;;;;20.77;12.32;;;5.70;55.40;;;;;;5096953;28;20054;-71
2021/03/14 01:16:31;;;;;;;18.83;12.13;;;5.70;55.40;;;;;;5097018;28;20031;-71
2021/03/14 01:18:57;;;;;;;21.00;12.88;;;5.70;55.40;;;;;;5096671;28;20032;-70
2021/03/14 01:21:23;;;;;;;19.05;12.43;;;5.70;55.30;;;;;;5114745;28;20500;-71
2021/03/14 01:23:49;;;;;;;20.65;12.27;;;5.70;55.40;;;;;;5114569;28;20094;-71
2021/03/14 01:26:15;;;;;;;17.45;11.70;;;5.70;55.40;;;;;;5115062;28;20492;-71
2021/03/14 01:28:41;;;;;;;18.50;11.50;;;5.70;55.40;;;;;;5096287;28;20493;-71
2021/03/14 01:31:06;;;;;;;18.48;12.20;;;5.70;55.40;;;;;;5114599;28;20397;-71
2021/03/14 01:33:32;;;;;;;18.42;12.60;;;5.70;55.40;;;;;;5114620;28;20031;-72
2021/03/14 01:35:58;;;;;;;19.85;11.57;;;5.70;55.40;;;;;;5114776;28;20043;-72
2021/03/14 01:38:24;;;;;;;16.33;10.95;;;5.70;55.40;;;;;;5114314;28;20038;-72
2021/03/14 01:40:50;;;;;;;16.73;11.60;;;5.70;55.50;;;;;;5114406;28;20488;-72
2021/03/14 01:43:16;;;;;;;16.80;10.77;;;5.70;55.40;;;;;;5114488;28;20043;-71
2021/03/14 01:45:42;;;;;;;18.55;11.63;;;5.70;55.40;;;;;;5110685;28;20040;-71
2021/03/14 01:48:13;;;;;;;16.60;10.93;;;5.70;55.50;;;;;;5101043;28;20040;-71
2021/03/14 01:50:39;;;;;;;15.93;11.68;;;5.70;55.40;;;;;;5113950;28;20475;-71
2021/03/14 01:53:05;;;;;;;18.35;12.20;;;5.70;55.40;;;;;;5096046;28;20035;-71
2021/03/14 01:55:31;;;;;;;15.57;10.98;;;5.70;55.40;;;;;;5113812;28;20059;-71
2021/03/14 01:57:57;;;;;;;19.42;11.63;;;5.70;55.50;;;;;;5114203;28;20500;-71
2021/03/14 02:00:25;;;;;;;18.20;10.95;;;5.70;55.50;;;;;;5114168;28;20100;-71
2021/03/14 02:02:51;;;;;;;18.42;11.02;;;5.70;55.50;;;;;;5095987;28;20031;-70
2021/03/14 02:05:20;;;;;;;19.13;12.00;;;5.70;55.50;;;;;;5114381;28;20090;-71
2021/03/14 02:07:52;;;;;;;18.80;11.60;;;5.70;55.60;;;;;;5114077;28;20038;-71
2021/03/14 02:10:22;;;;;;;17.58;12.00;;;5.70;55.60;;;;;;5095812;28;20126;-70
2021/03/14 02:12:57;;;;;;;19.00;12.13;;;5.70;55.50;;;;;;5114260;28;20023;-71
2021/03/14 02:15:25;;;;;;;19.50;12.50;;;5.70;55.50;;;;;;5095398;28;20096;-71
2021/03/14 02:17:53;;;;;;;20.67;13.18;;;5.70;55.40;;;;;;5113893;28;20031;-71
2021/03/14 02:20:23;;;;;;;17.98;11.73;;;5.70;55.40;;;;;;5113751;28;20493;-72
2021/03/14 02:23:05;;;;;;;17.58;11.10;;;5.70;55.50;;;;;;5113800;28;20042;-71
2021/03/14 02:25:50;;;;;;;21.27;12.52;;;5.70;55.40;;;;;;5113142;28;20063;-71
2021/03/14 02:28:17;;;;;;;18.02;11.80;;;5.70;55.50;;;;;;5113993;28;20165;-71
2021/03/14 02:30:45;;;;;;;17.25;11.48;;;5.70;55.50;;;;;;5095447;28;20042;-71
2021/03/14 02:33:19;;;;;;;18.52;11.18;;;5.70;55.50;;;;;;5113478;28;20405;-70
2021/03/14 02:35:47;;;;;;;16.98;10.98;;;5.70;55.60;;;;;;5113499;28;20039;-70
2021/03/14 02:38:16;;;;;;;16.92;10.73;;;5.70;55.80;;;;;;5095283;28;20096;-70
2021/03/14 02:40:42;;;;;;;16.05;10.90;;;5.70;55.50;;;;;;5113528;28;20027;-71
2021/03/14 02:43:09;;;;;;;16.15;10.40;;;5.70;55.50;;;;;;5113466;28;20088;-72
2021/03/14 02:45:35;;;;;;;20.05;10.80;;;5.70;55.50;;;;;;5113069;28;20055;-71
2021/03/14 02:48:02;;;;;;;17.40;11.43;;;5.70;55.40;;;;;;5103063;28;20456;-71
2021/03/14 02:50:31;;;;;;;15.23;10.25;;;5.70;55.40;;;;;;5107650;28;20031;-71
2021/03/14 02:52:59;;;;;;;16.05;10.38;;;5.70;55.40;;;;;;5113068;28;20513;-71
2021/03/14 02:55:26;;;;;;;14.68;10.63;;;5.70;55.50;;;;;;5113384;28;20035;-71
2021/03/14 02:57:53;;;;;;;18.17;11.73;;;5.70;55.50;;;;;;5113087;28;20047;-69
2021/03/14 03:00:25;;;;;;;13.52;10.07;;;5.70;55.50;;;;;;5112919;28;20031;-69
2021/03/14 03:02:55;;;;;;;17.05;10.55;;;5.70;55.50;;;;;;5113003;28;20039;-69
2021/03/14 03:05:22;;;;;;;16.83;9.90;;;5.70;55.60;;;;;;5113245;28;20064;-71
2021/03/14 03:07:53;;;;;;;15.68;10.07;;;5.70;55.50;;;;;;5113273;28;20076;-72
2021/03/14 03:10:21;;;;;;;15.80;10.20;;;5.70;55.50;;;;;;5113031;28;20502;-70
2021/03/14 03:12:49;;;;;;;16.02;10.30;;;5.70;55.50;;;;;;5113490;28;20454;-70
2021/03/14 03:15:20;;;;;;;17.23;10.55;;;5.70;55.60;;;;;;5094903;28;20408;-71
2021/03/14 03:17:48;;;;;;;15.00;10.20;;;5.70;55.60;;;;;;5113440;28;20067;-74
2021/03/14 03:20:15;;;;;;;18.52;11.50;;;5.70;55.60;;;;;;5112798;28;20076;-73
2021/03/14 03:22:41;;;;;;;15.25;10.18;;;5.70;55.60;;;;;;5094797;28;20036;-72
2021/03/14 03:25:09;;;;;;;17.08;10.90;;;5.70;55.60;;;;;;5112857;28;20109;-70
2021/03/14 03:27:35;;;;;;;16.58;10.60;;;5.70;55.70;;;;;;5112713;28;20043;-71
2021/03/14 03:30:04;;;;;;;17.98;11.43;;;5.70;56.20;;;;;;5112909;28;20160;-71
2021/03/14 03:32:30;;;;;;;15.25;10.60;;;5.70;55.70;;;;;;5112834;28;20071;-70
2021/03/14 03:34:56;;;;;;;18.05;10.77;;;5.70;55.70;;;;;;5113055;28;20116;-71
2021/03/14 03:37:22;;;;;;;16.80;10.70;;;5.70;55.80;;;;;;5115097;28;20032;-70
2021/03/14 03:39:48;;;;;;;18.33;10.88;;;5.70;55.80;;;;;;5116451;28;20053;-73
2021/03/14 03:42:19;;;;;;;19.98;11.75;;;5.70;55.80;;;;;;5116852;28;20032;-71
2021/03/14 03:44:45;;;;;;;15.77;10.65;;;5.80;55.90;;;;;;5098807;28;20042;-72
2021/03/14 03:47:15;;;;;;;18.65;11.02;;;5.70;55.70;;;;;;5114447;28;20041;-70
2021/03/14 03:49:46;;;;;;;17.13;10.65;;;5.70;55.80;;;;;;5103089;28;20028;-72
2021/03/14 03:52:15;;;;;;;16.55;11.02;;;5.70;55.80;;;;;;5098406;28;20573;-72
2021/03/14 03:54:42;;;;;;;16.27;9.55;;;5.70;55.90;;;;;;5116394;28;20036;-72
2021/03/14 03:57:09;;;;;;;16.65;10.00;;;5.70;55.90;;;;;;5098306;28;20493;-69
2021/03/14 03:59:37;;;;;;;16.27;10.05;;;5.80;56.00;;;;;;5116723;28;20499;-71
2021/03/14 04:02:04;;;;;;;17.42;10.48;;;5.80;56.00;;;;;;5116204;28;20028;-71
2021/03/14 04:04:33;;;;;;;16.85;10.77;;;5.70;56.00;;;;;;5116313;28;20497;-71
2021/03/14 04:07:01;;;;;;;15.95;9.77;;;5.70;56.00;;;;;;5116248;28;20040;-74
2021/03/14 04:09:28;;;;;;;15.27;9.85;;;5.80;56.10;;;;;;5103128;28;20044;-71
2021/03/14 04:11:55;;;;;;;16.40;9.88;;;5.80;56.10;;;;;;5113579;28;20047;-71
2021/03/14 04:14:23;;;;;;;14.88;10.15;;;5.80;56.00;;;;;;5097847;28;20043;-71
2021/03/14 04:16:52;;;;;;;15.32;10.48;;;5.80;56.10;;;;;;5116205;28;20128;-70
2021/03/14 04:19:21;;;;;;;15.27;10.35;;;5.70;56.00;;;;;;5116056;28;20514;-71
2021/03/14 04:21:52;;;;;;;19.25;11.18;;;5.70;56.10;;;;;;5115787;28;20028;-71
2021/03/14 04:24:19;;;;;;;18.92;11.48;;;5.70;56.10;;;;;;5116030;28;20042;-73
2021/03/14 04:26:46;;;;;;;18.45;10.93;;;5.80;56.20;;;;;;5116070;28;20118;-72
2021/03/14 04:29:14;;;;;;;16.10;10.32;;;5.80;56.30;;;;;;5115893;28;20123;-70
2021/03/14 04:31:47;;;;;;;18.50;10.77;;;5.70;56.20;;;;;;5097538;28;20039;-70
2021/03/14 04:34:15;;;;;;;17.25;10.70;;;5.80;56.30;;;;;;5115297;28;20493;-70
2021/03/14 04:36:42;;;;;;;17.45;10.80;;;5.80;56.20;;;;;;5115487;28;20032;-71
2021/03/14 04:39:09;;;;;;;17.77;10.23;;;5.80;56.20;;;;;;5115481;28;20043;-72
2021/03/14 04:41:36;;;;;;;18.50;11.20;;;5.80;56.30;;;;;;5115681;28;20040;-71
2021/03/14 04:44:05;;;;;;;18.15;11.05;;;5.80;56.30;;;;;;5115527;28;20039;-71
2021/03/14 04:46:31;;;;;;;18.95;11.00;;;5.80;56.30;;;;;;5115602;28;20040;-72
2021/03/14 04:48:58;;;;;;;18.20;10.77;;;5.80;56.40;;;;;;5089593;28;20109;-72
2021/03/14 04:51:30;;;;;;;16.83;11.40;;;5.80;56.40;;;;;;5106408;28;20057;-71
2021/03/14 04:53:57;;;;;;;18.67;10.85;;;5.80;56.50;;;;;;5115709;28;20046;-72
2021/03/14 04:56:24;;;;;;;17.52;10.88;;;5.80;56.50;;;;;;5096970;28;20043;-73
2021/03/14 04:58:51;;;;;;;17.98;10.80;;;5.80;56.60;;;;;;5097443;28;20115;-71
2021/03/14 05:01:22;;;;;;;18.38;10.82;;;5.80;56.50;;;;;;5093103;28;20074;-72
2021/03/14 05:03:51;;;;;;;18.70;10.80;;;5.80;56.50;;;;;;5105199;28;20040;-71
2021/03/14 05:06:19;;;;;;;18.17;11.05;;;5.80;56.60;;;;;;5094754;28;20129;-72
2021/03/14 05:08:46;;;;;;;18.88;10.88;;;5.80;56.50;;;;;;5094796;28;20374;-71
2021/03/14 05:11:18;;;;;;;17.48;11.07;;;5.80;56.60;;;;;;5094689;28;20557;-73
2021/03/14 05:13:45;;;;;;;21.63;10.88;;;5.80;56.60;;;;;;5076480;28;20036;-72
2021/03/14 05:16:13;;;;;;;18.30;11.05;;;5.80;56.60;;;;;;5094260;28;20036;-71
2021/03/14 05:18:41;;;;;;;17.98;11.07;;;5.80;56.60;;;;;;5094804;28;20122;-72
2021/03/14 05:21:08;;;;;;;19.10;11.65;;;5.80;56.70;;;;;;5094498;28;20066;-72
2021/03/14 05:23:34;;;;;;;19.50;11.73;;;5.80;56.70;;;;;;5094527;28;20060;-75
2021/03/14 05:26:02;;;;;;;19.88;11.15;;;5.80;56.80;;;;;;5102453;28;20115;-74
2021/03/14 05:28:29;;;;;;;18.55;10.73;;;5.80;56.80;;;;;;5109167;28;20031;-75
2021/03/14 05:30:55;;;;;;;21.95;12.18;;;5.90;56.90;;;;;;5099446;28;20627;-74
2021/03/14 05:33:22;;;;;;;19.38;11.77;;;5.80;56.90;;;;;;5101144;28;20040;-75
2021/03/14 05:35:48;;;;;;;20.33;11.32;;;5.90;56.90;;;;;;5114333;28;20039;-73
2021/03/14 05:38:14;;;;;;;18.27;11.38;;;5.90;56.90;;;;;;5114308;28;20035;-72
2021/03/14 05:40:40;;;;;;;21.67;11.05;;;5.90;57.10;;;;;;5114461;28;20412;-72
2021/03/14 05:43:06;;;;;;;18.70;11.07;;;5.80;57.00;;;;;;5114478;28;20023;-71
2021/03/14 05:45:32;;;;;;;17.27;11.20;;;5.90;57.00;;;;;;5114075;28;20152;-72
2021/03/14 05:47:58;;;;;;;17.02;10.82;;;5.90;57.10;;;;;;5114271;28;20404;-70
2021/03/14 05:50:27;;;;;;;18.38;11.00;;;5.90;57.20;;;;;;5114067;28;20035;-72
2021/03/14 05:52:53;;;;;;;17.73;10.90;;;5.90;57.20;;;;;;5095898;28;20126;-73
2021/03/14 05:55:22;;;;;;;18.60;9.73;;;5.90;57.20;;;;;;5106763;28;20237;-71
2021/03/14 05:57:50;;;;;;;19.15;11.10;;;5.90;57.20;;;;;;5093390;28;20058;-73
2021/03/14 06:00:26;;;;;;;19.10;10.93;;;5.90;57.30;;;;;;5100283;28;20023;-77
2021/03/14 06:03:01;;;;;;;15.35;10.07;;;5.90;57.20;;;;;;5089269;28;20039;-76
2021/03/14 06:05:28;;;;;;;15.98;9.27;;;5.90;57.20;;;;;;5106358;28;20047;-75
2021/03/14 06:07:56;;;;;;;16.33;10.02;;;5.90;57.10;;;;;;5105690;28;20038;-77
2021/03/14 06:10:22;;;;;;;18.05;10.85;;;5.90;57.10;;;;;;5108578;28;20114;-74
2021/03/14 06:12:49;;;;;;;17.13;10.23;;;5.90;57.20;;;;;;5103149;28;20424;-74
2021/03/14 06:15:15;;;;;;;15.77;9.70;;;5.90;57.20;;;;;;5095620;28;20422;-79
2021/03/14 06:17:42;;;;;;;17.13;9.98;;;5.90;57.20;;;;;;5113653;28;20035;-77
2021/03/14 06:20:10;;;;;;;16.33;9.88;;;5.90;57.30;;;;;;5095512;28;20039;-75
2021/03/14 06:22:36;;;;;;;18.05;10.43;;;5.90;57.30;;;;;;5113772;28;20036;-77
2021/03/14 06:25:03;;;;;;;16.08;9.77;;;5.90;57.30;;;;;;5113629;28;20042;-81
2021/03/14 06:27:36;;;;;;;15.95;9.88;;;5.90;57.40;;;;;;5106204;28;20035;-80
2021/03/14 06:30:08;;;;;;;15.35;9.45;;;5.90;57.40;;;;;;5104942;28;20036;-82
2021/03/14 06:32:35;;;;;;;13.95;9.40;;;5.90;57.30;;;;;;5113818;28;20468;-84
2021/03/14 06:35:15;;;;;;;14.20;9.15;;;5.90;57.30;;;;;;5113680;28;20484;-86
2021/03/14 06:37:42;;;;;;;16.77;10.27;;;6.00;57.40;;;;;;5095643;28;20130;-82
2021/03/14 06:40:13;;;;;;;18.38;10.82;;;5.90;57.40;;;;;;5095236;28;20031;-75
2021/03/14 06:42:40;;;;;;;18.35;11.27;;;5.90;57.50;;;;;;5113339;28;20032;-72
2021/03/14 06:45:16;;;;;;;15.20;10.20;;;5.90;57.40;;;;;;5113146;28;20031;-77
2021/03/14 06:47:45;;;;;;;16.55;10.05;;;5.90;57.30;;;;;;5113416;28;20035;-74
2021/03/14 06:50:34;;;;;;;14.63;8.02;;;5.90;57.40;;;;;;5112964;28;20460;-73
2021/03/14 06:53:16;;;;;;;13.75;8.27;;;6.00;58.20;;;;;;5113284;28;20126;-72
2021/03/14 06:55:44;;;;;;;13.55;8.02;;;5.90;59.20;;;;;;5113465;28;20035;-80
2021/03/14 06:58:19;;;;;;;14.48;8.25;;;6.00;59.90;;;;;;5095081;28;20105;-72
2021/03/14 07:01:03;;;;;;;;;;;6.00;60.60;;;;;;5113246;28;20527;-74
2021/03/14 07:03:29;;;;;;;12.38;7.75;;;6.00;61.60;;;;;;5094853;28;19912;-70
2021/03/14 07:06:23;;;;;;;14.20;7.53;;;6.10;61.50;;;;;;5101783;28;20059;-74
2021/03/14 07:08:55;;;;;;;13.20;7.95;;;6.10;61.80;;;;;;5085407;28;20032;-75
2021/03/14 07:11:42;;;;;;;11.25;7.70;;;6.20;62.00;;;;;;5077132;28;20040;-75
2021/03/14 07:14:16;;;;;;;11.05;6.82;;;6.20;62.50;;;;;;5073684;28;20108;-71
2021/03/14 07:16:47;;;;;;;12.60;7.82;;;6.20;62.60;;;;;;5085951;28;20044;-70
2021/03/14 07:19:28;;;;;;;13.38;8.95;;;6.30;62.80;;;;;;5074356;28;20059;-72
2021/03/14 07:21:59;;;;;;;16.05;9.85;;;6.30;62.90;;;;;;5093079;28;20521;-71
2021/03/14 07:24:35;;;;;;;15.07;9.68;;;6.30;63.10;;;;;;5095028;28;20523;-71
2021/03/14 07:27:06;;;;;;;16.90;9.93;;;6.30;62.90;;;;;;5084251;28;20032;-70
2021/03/14 07:29:36;;;;;;;17.58;10.52;;;6.30;62.70;;;;;;5074410;28;20043;-70
2021/03/14 07:32:06;;;;;;;16.77;10.32;;;6.30;62.50;;;;;;5090869;28;20040;-73
2021/03/14 07:34:35;;;;;;;17.40;10.02;;;6.40;62.40;;;;;;5103521;28;20058;-70
2021/03/14 07:37:03;;;;;;;17.08;10.80;;;6.40;62.30;;;;;;5075942;28;20029;-72
2021/03/14 07:39:29;;;;;;;16.90;10.38;;;6.40;61.90;;;;;;5075977;28;20068;-71
2021/03/14 07:41:56;;;;;;;18.25;10.77;;;6.40;61.90;;;;;;5076118;28;20036;-72
2021/03/14 07:44:24;;;;;;;21.10;11.38;;;6.40;61.80;;;;;;5076058;28;20043;-73
2021/03/14 07:46:52;;;;;;;19.58;12.68;;;6.40;61.80;;;;;;5075862;28;20040;-72
2021/03/14 07:49:20;;;;;;;17.58;11.05;;;6.40;61.70;;;;;;5057984;28;20119;-71
2021/03/14 07:51:54;;;;;;;17.70;11.13;;;6.40;61.70;;;;;;5075891;28;20025;-72
2021/03/14 07:54:32;;;;;;;16.38;10.63;;;6.40;61.60;;;;;;5102666;28;20563;-70
2021/03/14 07:57:00;;;;;;;17.77;11.10;;;6.40;61.60;;;;;;5107425;28;20036;-68
2021/03/14 07:59:28;;;;;;;17.02;10.98;;;6.40;61.60;;;;;;5115099;28;20038;-70
2021/03/14 08:02:14;;;;;;;15.35;10.43;;;6.40;61.50;;;;;;5104047;28;20055;-69
2021/03/14 08:04:39;;;;;;;15.98;9.57;;;6.40;60.60;;;;;;5111861;28;20507;-68
2021/03/14 08:07:05;;;;;;;16.75;9.50;;;6.40;61.00;;;;;;5098059;28;20043;-68
2021/03/14 08:09:48;;;;;;;17.05;10.15;;;6.50;61.70;;;;;;5097721;28;20524;-69
2021/03/14 08:12:20;;;;;;;17.48;10.23;;;6.50;62.90;;;;;;5097672;28;20035;-69
2021/03/14 08:14:49;;;;;;;16.27;9.85;;;6.50;63.40;;;;;;5098197;28;20564;-69
2021/03/14 08:17:18;;;;;;;14.85;9.05;;;6.50;63.80;;;;;;5097842;28;20453;-72
2021/03/14 08:19:44;;;;;;;14.15;8.25;;;6.50;62.90;;;;;;5103387;28;20381;-72
2021/03/14 08:22:36;;;;;;;10.65;7.22;;;6.50;63.00;;;;;;5112347;28;20039;-71
2021/03/14 08:25:42;;;;;;;10.57;7.00;;;6.60;64.00;;;;;;5092787;28;20459;-70
2021/03/14 08:28:30;;;;;;;15.60;8.15;;;6.70;64.40;;;;;;5015264;28;20454;-70
2021/03/14 08:31:06;;;;;;;15.90;8.88;;;6.70;64.20;;;;;;5000746;28;20038;-70
2021/03/14 08:33:46;;;;;;;21.67;10.02;;;6.70;64.00;;;;;;5075353;28;20096;-67
2021/03/14 08:36:42;;;;;;;16.40;9.90;;;6.70;63.90;;;;;;5097111;28;20046;-67
2021/03/14 08:39:22;;;;;;;20.00;9.98;;;6.70;64.00;;;;;;5097426;28;20039;-71
2021/03/14 08:41:57;;;;;;;16.08;9.48;;;6.70;63.90;;;;;;5097330;28;20035;-69
2021/03/14 08:44:42;;;;;;;17.17;10.52;;;6.70;63.60;;;;;;5081362;28;20039;-71
2021/03/14 08:47:22;;;;;;;18.13;11.20;;;6.70;63.60;;;;;;5096971;28;20519;-70
2021/03/14 08:49:56;;;;;;;17.52;10.43;;;6.70;63.50;;;;;;5097486;28;20122;-68
2021/03/14 08:52:24;;;;;;;15.80;10.13;;;6.70;63.30;;;;;;5097064;28;20031;-69
2021/03/14 08:55:04;;;;;;;19.30;10.43;;;6.70;62.50;;;;;;5096954;28;20042;-72
2021/03/14 08:57:35;;;;;;;14.23;8.52;;;6.70;62.70;;;;;;5089583;28;20043;-69
2021/03/14 09:00:06;;;;;;;16.60;9.38;;;6.60;62.10;;;;;;5077865;28;20040;-69
2021/03/14 09:02:38;;;;;;;23.95;11.20;;;6.70;62.60;;;;;;5070728;28;20036;-69
2021/03/14 09:05:15;;;;;;;20.58;11.15;;;6.70;63.00;;;;;;5070806;28;20141;-69
2021/03/14 09:08:01;;;;;;;17.88;10.23;;;6.70;63.30;;;;;;5073359;28;20029;-69
2021/03/14 09:10:36;;;;;;;16.33;10.65;;;6.80;63.40;;;;;;5073685;28;20055;-69
2021/03/14 09:13:27;;;;;;;18.95;11.60;;;6.70;63.40;;;;;;5071146;28;20085;-70
2021/03/14 09:16:42;;;;;;;16.27;11.00;;;6.80;63.40;;;;;;5077648;28;20052;-70
2021/03/14 09:19:08;;;;;;;19.73;11.40;;;6.70;63.10;;;;;;5082289;28;20039;-69
2021/03/14 09:21:51;;;;;;;21.30;12.48;;;6.80;63.10;;;;;;5087407;28;20170;-70
2021/03/14 09:24:31;;;;;;;21.92;12.35;;;6.80;63.00;;;;;;5100756;28;20036;-69
2021/03/14 09:27:06;;;;;;;22.05;11.65;;;6.80;62.90;;;;;;5056191;28;20040;-72
2021/03/14 09:29:44;;;;;;;14.95;9.20;;;6.80;62.60;;;;;;5056171;28;20130;-73
2021/03/14 09:32:34;;;;;;;17.40;10.55;;;6.80;62.60;;;;;;5055858;28;20040;-75
2021/03/14 09:35:18;;;;;;;16.73;10.10;;;6.90;63.10;;;;;;5045761;28;20048;-69
2021/03/14 09:38:03;;;;;;;15.70;8.43;;;6.90;63.60;;;;;;5074021;28;20041;-68
2021/03/14 09:40:32;;;;;;;23.08;11.35;;;7.00;64.40;;;;;;5056044;28;20143;-68
2021/03/14 09:43:07;;;;;;;20.10;10.50;;;7.00;65.50;;;;;;5073726;28;20044;-68
2021/03/14 09:45:39;;;;;;;20.15;10.05;;;7.10;66.60;;;;;;5056261;28;20441;-75
2021/03/14 09:48:22;;;;;;;27.10;13.70;;;7.20;66.80;;;;;;5056059;28;20025;-68
2021/03/14 09:50:53;;;;;;;25.67;15.35;;;7.30;67.70;;;;;;5055703;28;20040;-69
2021/03/14 09:53:27;;;;;;;27.17;16.10;;;7.30;67.60;;;;;;5055432;28;20033;-70
2021/03/14 09:56:09;;;;;;;34.72;17.17;;;7.30;67.10;;;;;;5055692;28;20032;-68
2021/03/14 09:58:53;;;;;;;35.17;17.73;;;7.30;66.70;;;;;;5087017;28;20097;-73
2021/03/14 10:01:21;;;;;;;31.45;16.75;;;7.20;66.70;;;;;;5080602;28;20043;-74
2021/03/14 10:03:58;;;;;;;30.52;16.95;;;7.20;67.20;;;;;;5077496;28;20126;-75
2021/03/14 10:06:39;;;;;;;30.75;17.45;;;7.20;67.20;;;;;;5084633;28;20425;-77
2021/03/14 10:09:22;;;;;;;27.48;16.27;;;7.10;67.40;;;;;;5077856;28;20027;-77
2021/03/14 10:11:53;;;;;;;31.40;18.17;;;7.10;67.50;;;;;;5055639;28;20098;-78
2021/03/14 10:14:21;;;;;;;32.35;17.20;;;7.10;67.40;;;;;;5038969;28;20102;-84
2021/03/14 10:16:48;;;;;;;34.08;16.92;;;7.00;67.80;;;;;;5072529;28;20123;-66
2021/03/14 10:19:16;;;;;;;31.80;17.63;;;7.00;67.80;;;;;;5054992;28;20037;-65
2021/03/14 10:21:46;;;;;;;32.03;16.75;;;7.00;67.60;;;;;;5072525;28;20036;-66
2021/03/14 10:24:32;;;;;;;31.27;17.17;;;7.00;67.70;;;;;;5072162;28;20040;-66
2021/03/14 10:27:21;;;;;;;29.92;17.38;;;7.00;67.40;;;;;;5054801;28;20051;-75
2021/03/14 10:30:08;;;;;;;37.72;17.10;;;7.00;67.20;;;;;;5072285;28;20072;-74
2021/03/14 10:32:51;;;;;;;33.88;18.05;;;7.00;67.20;;;;;;5054936;28;20033;-73
2021/03/14 10:35:33;;;;;;;33.83;17.35;;;7.00;67.20;;;;;;5054880;28;20067;-74
2021/03/14 10:38:13;;;;;;;34.75;17.38;;;7.00;67.00;;;;;;5054583;28;20086;-75
2021/03/14 10:40:39;;;;;;;29.98;16.73;;;7.00;67.20;;;;;;5054949;28;20139;-77
2021/03/14 10:43:25;;;;;;;32.25;18.70;;;7.00;67.10;;;;;;5054495;28;20032;-76
2021/03/14 10:46:01;;;;;;;33.75;17.85;;;7.00;67.40;;;;;;5054428;28;20494;-77
2021/03/14 10:48:28;;;;;;;33.20;18.33;;;7.00;67.50;;;;;;5054194;28;20079;-77
2021/03/14 10:51:01;;;;;;;29.98;17.20;;;6.90;67.40;;;;;;5054473;28;20033;-76
2021/03/14 10:53:30;;;;;;;30.98;17.33;;;7.00;67.30;;;;;;5072433;28;20032;-73
2021/03/14 10:56:13;;;;;;;31.02;18.00;;;7.00;67.40;;;;;;5054449;28;20040;-75
2021/03/14 10:58:44;;;;;;;34.25;16.73;;;6.90;67.40;;;;;;5038798;28;20379;-75
2021/03/14 11:01:41;;;;;;;31.77;16.77;;;7.00;67.20;;;;;;5055137;28;20047;-70
2021/03/14 11:04:08;;;;;;;28.95;17.70;;;7.00;67.10;;;;;;5054450;28;20064;-69
2021/03/14 11:06:40;;;;;;;29.35;17.15;;;6.90;66.80;;;;;;5054796;28;20148;-69
2021/03/14 11:09:18;;;;;;;32.03;17.42;;;6.90;66.50;;;;;;5054614;28;20383;-69
2021/03/14 11:11:47;;;;;;;31.75;17.67;;;6.90;66.20;;;;;;5054398;28;20127;-71
2021/03/14 11:14:41;;;;;;;32.75;19.67;;;6.90;66.10;;;;;;5054574;28;20044;-69
2021/03/14 11:17:34;;;;;;;30.88;17.55;;;6.90;65.90;;;;;;5061116;28;20036;-69
2021/03/14 11:20:26;;;;;;;29.70;17.35;;;6.90;65.90;;;;;;5058968;28;20052;-69
2021/03/14 11:23:12;;;;;;;32.95;17.58;;;6.90;66.00;;;;;;5054180;28;20040;-69
2021/03/14 11:25:37;;;;;;;36.72;18.42;;;6.90;66.10;;;;;;5054358;28;20032;-69
2021/03/14 11:28:09;;;;;;;33.15;17.50;;;6.90;66.30;;;;;;5054378;28;20028;-72
2021/03/14 11:30:36;;;;;;;33.75;17.83;;;6.90;66.50;;;;;;5054286;28;20032;-68
2021/03/14 11:33:03;;;;;;;32.53;19.00;;;6.80;67.30;;;;;;5054293;28;20453;-70
2021/03/14 11:35:43;;;;;;;32.15;17.45;;;6.80;67.40;;;;;;5054160;28;20093;-70
2021/03/14 11:38:22;;;;;;;30.08;16.40;;;6.80;67.20;;;;;;5054816;28;20040;-70
2021/03/14 11:41:14;;;;;;;27.92;15.90;;;6.80;67.00;;;;;;5067844;28;20033;-71
2021/03/14 11:43:53;;;;;;;33.80;18.00;;;6.80;67.00;;;;;;5054336;28;20365;-72
2021/03/14 11:46:23;;;;;;;30.33;16.90;;;6.80;67.30;;;;;;5054046;28;20410;-70
2021/03/14 11:49:07;;;;;;;31.63;17.05;;;6.80;67.40;;;;;;5054042;28;20148;-70
2021/03/14 11:51:34;;;;;;;32.33;17.60;;;6.80;67.40;;;;;;5054126;28;20033;-71
2021/03/14 11:54:11;;;;;;;35.20;17.75;;;6.80;67.40;;;;;;5072225;28;20470;-70
2021/03/14 11:56:39;;;;;;;32.05;17.83;;;6.80;67.70;;;;;;5054044;28;20036;-70
2021/03/14 11:59:05;;;;;;;34.42;18.50;;;6.70;67.70;;;;;;5057480;28;20036;-69
2021/03/14 12:01:46;;;;;;;32.25;17.92;;;6.70;68.00;;;;;;5057252;28;20036;-70
2021/03/14 12:04:18;;;;;;;32.83;16.35;;;6.70;67.90;;;;;;5057828;28;20513;-69
2021/03/14 12:06:44;;;;;;;34.97;18.00;;;6.70;68.20;;;;;;5041239;28;20039;-68
2021/03/14 12:09:18;;;;;;;30.80;17.63;;;6.70;70.20;;;;;;5057954;28;20044;-67
2021/03/14 12:11:46;;;;;;;28.48;15.30;;;6.70;69.80;;;;;;5057174;28;20032;-69
2021/03/14 12:14:15;;;;;;;34.10;18.58;;;6.70;69.40;;;;;;5056999;28;20029;-67
2021/03/14 12:17:01;;;;;;;33.22;18.40;;;6.70;69.20;;;;;;5075675;28;20498;-69
2021/03/14 12:19:47;;;;;;;33.63;18.20;;;6.70;68.90;;;;;;5074488;28;20057;-69
2021/03/14 12:22:16;;;;;;;31.48;18.55;;;6.60;68.80;;;;;;5056994;28;20060;-68
2021/03/14 12:24:42;;;;;;;34.25;18.75;;;6.60;68.80;;;;;;5074734;28;20086;-69
2021/03/14 12:27:08;;;;;;;36.03;19.92;;;6.60;68.80;;;;;;5074872;28;20028;-69
2021/03/14 12:29:34;;;;;;;35.08;19.15;;;6.60;69.40;;;;;;5074792;28;20127;-71
2021/03/14 12:32:10;;;;;;;33.20;19.58;;;6.60;68.80;;;;;;5056940;28;20024;-67
2021/03/14 12:34:37;;;;;;;30.63;19.02;;;6.50;69.10;;;;;;5057198;28;20036;-68
2021/03/14 12:37:05;;;;;;;33.00;18.52;;;6.50;69.00;;;;;;5056499;28;20102;-67
2021/03/14 12:39:36;;;;;;;35.88;20.35;;;6.50;69.20;;;;;;5040819;28;20047;-68
2021/03/14 12:42:03;;;;;;;33.67;18.42;;;6.50;69.80;;;;;;5056864;28;20041;-68
2021/03/14 12:44:30;;;;;;;31.25;18.50;;;6.50;69.10;;;;;;5054807;28;20040;-69
2021/03/14 12:46:56;;;;;;;32.60;18.30;;;6.50;68.90;;;;;;5090340;28;20032;-69
2021/03/14 12:49:22;;;;;;;33.00;17.83;;;6.50;69.00;;;;;;5057588;28;20045;-69
2021/03/14 12:51:50;;;;;;;32.85;18.83;;;6.50;68.90;;;;;;5055130;28;20429;-68
2021/03/14 12:54:17;;;;;;;28.17;16.73;;;6.50;68.80;;;;;;5055103;28;20054;-66
2021/03/14 12:56:43;;;;;;;33.40;19.40;;;6.50;69.00;;;;;;5056642;28;20028;-68
2021/03/14 12:59:15;;;;;;;32.97;17.77;;;6.50;69.10;;;;;;5071788;28;20032;-69